createdAt,value
2024-05-09T00:00:39.058Z,2.53
2024-05-09T00:01:33.764Z,2.22
2024-05-09T00:02:32.702Z,2.89
2024-05-09T00:03:32.768Z,2.07
2024-05-09T00:04:32.759Z,2.42
2024-05-09T00:05:32.840Z,1.87
2024-05-09T00:06:32.714Z,2.34
2024-05-09T00:07:32.748Z,2.51
2024-05-09T00:08:32.744Z,1.91
2024-05-09T00:09:32.720Z,2.06
2024-05-09T00:10:37.194Z,1.90
2024-05-09T00:11:33.833Z,1.71
2024-05-09T00:12:32.775Z,1.68
2024-05-09T00:13:32.767Z,1.27
2024-05-09T00:14:32.853Z,1.44
2024-05-09T00:15:32.768Z,1.27
2024-05-09T00:16:32.770Z,1.40
2024-05-09T00:17:32.961Z,1.80
2024-05-09T00:18:32.915Z,1.70
2024-05-09T00:19:32.888Z,1.50
2024-05-09T00:20:38.042Z,1.39
2024-05-09T00:21:33.790Z,1.00
2024-05-09T00:22:32.807Z,1.41
2024-05-09T00:23:33.019Z,1.47
2024-05-09T00:24:32.789Z,1.39
2024-05-09T00:25:32.792Z,1.47
2024-05-09T00:26:32.875Z,2.34
2024-05-09T00:27:32.801Z,2.37
2024-05-09T00:28:32.790Z,2.46
2024-05-09T00:29:32.955Z,2.80
2024-05-09T00:30:35.488Z,3.00
2024-05-09T00:31:32.791Z,3.43
2024-05-09T00:32:33.063Z,3.23
2024-05-09T00:33:32.907Z,3.92
2024-05-09T00:34:32.822Z,3.55
2024-05-09T00:35:32.953Z,4.26
2024-05-09T00:36:32.833Z,3.77
2024-05-09T00:37:32.820Z,3.93
2024-05-09T00:38:32.905Z,3.96
2024-05-09T00:39:32.823Z,3.85
2024-05-09T00:40:38.926Z,4.49
2024-05-09T00:41:33.927Z,4.47
2024-05-09T00:42:32.830Z,4.00
2024-05-09T00:43:32.905Z,3.94
2024-05-09T00:44:32.857Z,4.02
2024-05-09T00:45:32.835Z,4.53
2024-05-09T00:46:32.825Z,5.00
2024-05-09T00:47:32.999Z,4.17
2024-05-09T00:48:32.981Z,3.76
2024-05-09T00:49:32.951Z,4.54
2024-05-09T00:50:36.492Z,5.05
2024-05-09T00:51:32.836Z,4.53
2024-05-09T00:52:32.830Z,4.57
2024-05-09T00:53:32.908Z,4.22
2024-05-09T00:54:32.830Z,4.39
2024-05-09T00:55:32.850Z,5.44
2024-05-09T00:56:32.859Z,5.33
2024-05-09T00:57:32.847Z,4.73
2024-05-09T00:58:32.858Z,4.82
2024-05-09T00:59:32.868Z,4.10
2024-05-09T01:00:38.693Z,2.71
2024-05-09T01:01:33.973Z,1.94
2024-05-09T01:02:32.961Z,2.46
2024-05-09T01:03:33.067Z,2.33
2024-05-09T01:04:32.860Z,2.77
2024-05-09T01:05:32.937Z,2.59
2024-05-09T01:06:32.850Z,1.76
2024-05-09T01:07:32.848Z,1.89
2024-05-09T01:08:32.911Z,1.93
2024-05-09T01:09:32.833Z,1.91
2024-05-09T01:10:35.111Z,1.90
2024-05-09T01:11:32.968Z,3.15
2024-05-09T01:12:32.913Z,2.54
2024-05-09T01:13:32.849Z,1.77
2024-05-09T01:14:32.866Z,1.80
2024-05-09T01:15:32.867Z,1.46
2024-05-09T01:16:32.842Z,1.12
2024-05-09T01:17:32.924Z,1.47
2024-05-09T01:18:32.914Z,1.83
2024-05-09T01:19:33.021Z,2.84
2024-05-09T01:20:40.916Z,2.59
2024-05-09T01:21:33.870Z,2.26
2024-05-09T01:22:32.847Z,2.35
2024-05-09T01:23:32.928Z,2.52
2024-05-09T01:24:32.848Z,2.26
2024-05-09T01:25:32.857Z,2.84
2024-05-09T01:26:32.925Z,3.24
2024-05-09T01:27:32.863Z,3.35
2024-05-09T01:28:32.892Z,3.58
2024-05-09T01:29:32.861Z,4.28
2024-05-09T01:30:35.804Z,4.53
2024-05-09T01:31:32.899Z,5.41
2024-05-09T01:32:32.974Z,5.18
2024-05-09T01:33:33.398Z,5.26
2024-05-09T01:34:32.875Z,5.47
2024-05-09T01:35:32.899Z,6.00
2024-05-09T01:36:32.875Z,5.23
2024-05-09T01:37:32.910Z,4.31
2024-05-09T01:38:33.076Z,2.89
2024-05-09T01:39:32.881Z,3.11
2024-05-09T01:40:37.560Z,3.18
2024-05-09T01:41:33.982Z,3.16
2024-05-09T01:42:32.878Z,3.09
2024-05-09T01:43:32.881Z,2.90
2024-05-09T01:44:32.941Z,2.36
2024-05-09T01:45:33.052Z,1.79
2024-05-09T01:46:32.932Z,1.70
2024-05-09T01:47:33.122Z,1.18
2024-05-09T01:48:32.943Z,1.37
2024-05-09T01:49:32.931Z,1.75
2024-05-09T01:50:38.981Z,1.41
2024-05-09T01:51:33.916Z,1.62
2024-05-09T01:52:32.930Z,1.32
2024-05-09T01:53:33.014Z,1.72
2024-05-09T01:54:32.935Z,1.36
2024-05-09T01:55:32.915Z,0.92
2024-05-09T01:56:33.079Z,1.24
2024-05-09T01:57:32.924Z,1.30
2024-05-09T01:58:32.970Z,1.18
2024-05-09T01:59:33.094Z,0.80
2024-05-09T02:00:38.996Z,0.73
2024-05-09T02:01:55.483Z,0.93
2024-05-09T02:02:34.019Z,1.20
2024-05-09T02:03:33.045Z,1.48
2024-05-09T02:04:32.967Z,1.08
2024-05-09T02:05:32.986Z,1.00
2024-05-09T02:06:32.952Z,0.91
2024-05-09T02:07:33.239Z,1.18
2024-05-09T02:08:33.122Z,0.99
2024-05-09T02:09:32.925Z,1.47
2024-05-09T02:10:33.561Z,1.30
2024-05-09T02:11:32.996Z,2.01
2024-05-09T02:12:33.101Z,1.47
2024-05-09T02:13:32.978Z,1.45
2024-05-09T02:14:32.963Z,1.35
2024-05-09T02:15:32.937Z,1.45
2024-05-09T02:16:32.954Z,1.77
2024-05-09T02:17:33.058Z,1.73
2024-05-09T02:18:33.055Z,1.63
2024-05-09T02:19:33.257Z,2.04
2024-05-09T02:20:36.367Z,1.90
2024-05-09T02:21:32.984Z,1.89
2024-05-09T02:22:32.993Z,2.11
2024-05-09T02:23:33.061Z,2.35
2024-05-09T02:24:32.979Z,2.06
2024-05-09T02:25:33.144Z,1.96
2024-05-09T02:26:32.991Z,2.22
2024-05-09T02:27:32.964Z,1.99
2024-05-09T02:28:32.959Z,2.16
2024-05-09T02:29:33.082Z,2.12
2024-05-09T02:30:39.103Z,2.53
2024-05-09T02:31:33.997Z,2.67
2024-05-09T02:32:33.162Z,2.70
2024-05-09T02:33:33.394Z,3.98
2024-05-09T02:34:33.076Z,4.44
2024-05-09T02:35:33.071Z,3.19
2024-05-09T02:36:32.994Z,2.87
2024-05-09T02:37:32.992Z,3.17
2024-05-09T02:38:33.098Z,3.35
2024-05-09T02:39:32.999Z,3.07
2024-05-09T02:40:37.194Z,2.55
2024-05-09T02:41:34.013Z,2.46
2024-05-09T02:42:33.005Z,2.68
2024-05-09T02:43:33.018Z,2.43
2024-05-09T02:44:33.029Z,1.93
2024-05-09T02:45:33.188Z,1.97
2024-05-09T02:46:33.028Z,2.55
2024-05-09T02:47:33.177Z,2.42
2024-05-09T02:48:33.193Z,2.80
2024-05-09T02:49:33.090Z,3.76
2024-05-09T02:50:38.068Z,3.19
2024-05-09T02:51:34.042Z,4.00
2024-05-09T02:52:33.031Z,3.79
2024-05-09T02:53:33.073Z,4.39
2024-05-09T02:54:33.028Z,3.80
2024-05-09T02:55:33.235Z,3.84
2024-05-09T02:56:33.096Z,3.76
2024-05-09T02:57:33.037Z,3.10
2024-05-09T02:58:33.015Z,2.98
2024-05-09T02:59:33.061Z,1.95
2024-05-09T03:00:38.966Z,2.68
2024-05-09T03:01:34.129Z,2.24
2024-05-09T03:02:33.205Z,2.59
2024-05-09T03:03:33.288Z,1.84
2024-05-09T03:04:33.160Z,2.23
2024-05-09T03:05:33.266Z,1.75
2024-05-09T03:06:33.051Z,1.95
2024-05-09T03:07:33.041Z,1.62
2024-05-09T03:08:33.143Z,2.17
2024-05-09T03:09:33.058Z,2.62
2024-05-09T03:10:36.380Z,2.24
2024-05-09T03:11:34.162Z,2.53
2024-05-09T03:12:34.065Z,2.11
2024-05-09T03:13:33.052Z,2.08
2024-05-09T03:14:33.106Z,2.10
2024-05-09T03:15:33.292Z,2.70
2024-05-09T03:16:33.085Z,2.91
2024-05-09T03:17:33.323Z,3.43
2024-05-09T03:18:33.159Z,3.60
2024-05-09T03:19:33.202Z,3.78
2024-05-09T03:20:35.415Z,3.51
2024-05-09T03:21:33.107Z,3.31
2024-05-09T03:22:33.092Z,2.62
2024-05-09T03:23:33.117Z,2.26
2024-05-09T03:24:33.104Z,2.24
2024-05-09T03:25:33.116Z,2.32
2024-05-09T03:26:33.116Z,1.99
2024-05-09T03:27:33.106Z,2.01
2024-05-09T03:28:33.116Z,2.32
2024-05-09T03:29:33.167Z,2.56
2024-05-09T03:30:40.511Z,2.52
2024-05-09T03:31:34.107Z,2.78
2024-05-09T03:32:33.256Z,2.50
2024-05-09T03:33:33.332Z,2.51
2024-05-09T03:34:33.127Z,2.93
2024-05-09T03:35:33.155Z,2.59
2024-05-09T03:36:33.108Z,2.40
2024-05-09T03:37:33.162Z,2.37
2024-05-09T03:38:33.228Z,2.06
2024-05-09T03:39:33.127Z,2.34
2024-05-09T03:40:33.130Z,1.93
2024-05-09T03:41:33.299Z,1.84
2024-05-09T03:42:33.140Z,1.71
2024-05-09T03:43:33.120Z,1.35
2024-05-09T03:44:33.233Z,1.11
2024-05-09T03:45:33.210Z,1.61
2024-05-09T03:46:33.225Z,1.02
2024-05-09T03:47:33.411Z,0.84
2024-05-09T03:48:33.350Z,0.79
2024-05-09T03:49:33.423Z,0.80
2024-05-09T03:50:35.642Z,0.87
2024-05-09T03:51:33.312Z,0.91
2024-05-09T03:52:33.349Z,0.63
2024-05-09T03:53:33.501Z,0.83
2024-05-09T03:54:33.349Z,1.12
2024-05-09T03:55:33.346Z,1.96
2024-05-09T03:56:33.352Z,1.58
2024-05-09T03:57:33.353Z,0.87
2024-05-09T03:58:33.334Z,0.59
2024-05-09T03:59:33.395Z,0.96
2024-05-09T04:00:38.104Z,1.32
2024-05-09T04:01:34.424Z,1.04
2024-05-09T04:02:33.437Z,1.12
2024-05-09T04:03:33.525Z,1.34
2024-05-09T04:04:33.451Z,1.51
2024-05-09T04:05:33.487Z,1.14
2024-05-09T04:06:33.362Z,0.76
2024-05-09T04:07:33.375Z,1.09
2024-05-09T04:08:33.510Z,0.76
2024-05-09T04:09:33.377Z,0.76
2024-05-09T04:10:34.911Z,0.66
2024-05-09T04:11:33.481Z,0.76
2024-05-09T04:12:33.451Z,0.95
2024-05-09T04:13:33.361Z,1.04
2024-05-09T04:14:33.428Z,0.78
2024-05-09T04:15:33.439Z,1.16
2024-05-09T04:16:33.369Z,0.83
2024-05-09T04:17:33.548Z,0.91
2024-05-09T04:18:33.660Z,1.32
2024-05-09T04:19:33.658Z,0.91
2024-05-09T04:20:38.677Z,0.88
2024-05-09T04:21:34.600Z,1.07
2024-05-09T04:22:33.604Z,0.97
2024-05-09T04:23:33.806Z,0.93
2024-05-09T04:24:33.604Z,1.03
2024-05-09T04:25:33.654Z,1.03
2024-05-09T04:26:33.689Z,0.84
2024-05-09T04:27:33.619Z,1.38
2024-05-09T04:28:33.622Z,1.66
2024-05-09T04:29:33.693Z,2.09
2024-05-09T04:30:38.278Z,1.40
2024-05-09T04:31:34.626Z,1.14
2024-05-09T04:32:33.732Z,1.10
2024-05-09T04:33:33.825Z,1.37
2024-05-09T04:34:33.793Z,1.48
2024-05-09T04:35:33.685Z,1.29
2024-05-09T04:36:33.638Z,1.24
2024-05-09T04:37:33.652Z,1.09
2024-05-09T04:38:33.789Z,1.21
2024-05-09T04:39:41.327Z,1.05
2024-05-09T04:40:41.376Z,1.23
2024-05-09T04:41:41.494Z,1.03
2024-05-09T04:42:41.514Z,1.22
2024-05-09T04:43:41.569Z,0.97
2024-05-09T04:44:41.603Z,0.98
2024-05-09T04:45:41.683Z,1.74
2024-05-09T04:46:41.738Z,1.48
2024-05-09T04:47:41.967Z,1.26
2024-05-09T04:48:41.975Z,1.63
2024-05-09T04:49:41.909Z,2.17
2024-05-09T04:50:42.024Z,2.32
2024-05-09T04:51:42.005Z,1.77
2024-05-09T04:52:42.057Z,2.27
2024-05-09T04:53:42.126Z,1.55
2024-05-09T04:54:42.158Z,1.43
2024-05-09T04:55:42.221Z,1.10
2024-05-09T04:56:42.339Z,1.77
2024-05-09T04:57:42.366Z,1.26
2024-05-09T04:58:42.432Z,1.79
2024-05-09T04:59:42.437Z,1.66
2024-05-09T05:00:42.604Z,1.82
2024-05-09T05:01:42.590Z,2.11
2024-05-09T05:02:42.766Z,2.58
2024-05-09T05:03:42.911Z,3.85
2024-05-09T05:04:42.878Z,3.88
2024-05-09T05:05:43.413Z,3.54
2024-05-09T05:06:42.858Z,3.55
2024-05-09T05:07:42.899Z,2.87
2024-05-09T05:08:43.005Z,3.63
2024-05-09T05:09:42.996Z,4.24
2024-05-09T05:10:43.084Z,4.75
2024-05-09T05:11:43.170Z,5.45
2024-05-09T05:12:43.111Z,6.31
2024-05-09T05:13:43.182Z,6.76
2024-05-09T05:14:43.205Z,7.42
2024-05-09T05:15:43.252Z,7.34
2024-05-09T05:16:43.285Z,7.37
2024-05-09T05:17:43.596Z,7.78
2024-05-09T05:18:43.457Z,8.19
2024-05-09T05:19:43.603Z,7.58
2024-05-09T05:20:43.632Z,7.85
2024-05-09T05:21:43.567Z,7.86
2024-05-09T05:22:43.599Z,7.41
2024-05-09T05:23:43.659Z,7.73
2024-05-09T05:24:43.633Z,7.81
2024-05-09T05:25:43.730Z,7.34
2024-05-09T05:26:43.713Z,8.03
2024-05-09T05:27:43.703Z,7.49
2024-05-09T05:28:43.714Z,7.75
2024-05-09T05:29:43.839Z,7.93
2024-05-09T05:30:43.850Z,7.12
2024-05-09T05:31:43.932Z,7.56
2024-05-09T05:32:44.088Z,7.87
2024-05-09T05:33:44.063Z,8.35
2024-05-09T05:34:44.043Z,7.21
2024-05-09T05:35:44.112Z,7.45
2024-05-09T05:36:44.081Z,7.68
2024-05-09T05:37:44.157Z,7.69
2024-05-09T05:38:44.306Z,7.38
2024-05-09T05:39:44.172Z,8.26
2024-05-09T05:40:44.335Z,9.23
2024-05-09T05:41:44.287Z,8.45
2024-05-09T05:42:44.300Z,8.56
2024-05-09T05:43:44.449Z,8.70
2024-05-09T05:44:44.354Z,8.09
2024-05-09T05:45:44.442Z,8.39
2024-05-09T05:46:44.509Z,9.18
2024-05-09T05:47:44.780Z,8.51
2024-05-09T05:48:44.599Z,9.14
2024-05-09T05:49:44.514Z,8.81
2024-05-09T05:50:44.676Z,9.13
2024-05-09T05:51:44.625Z,7.94
2024-05-09T05:52:44.762Z,9.54
2024-05-09T05:53:44.774Z,9.80
2024-05-09T05:54:44.727Z,9.27
2024-05-09T05:55:44.836Z,9.03
2024-05-09T05:56:44.912Z,9.58
2024-05-09T05:57:44.906Z,9.59
2024-05-09T05:58:45.145Z,9.84
2024-05-09T05:59:45.061Z,8.41
2024-05-09T06:00:45.218Z,8.88
2024-05-09T06:01:45.159Z,9.25
2024-05-09T06:02:45.327Z,8.93
2024-05-09T06:03:45.304Z,7.86
2024-05-09T06:04:45.366Z,8.40
2024-05-09T06:05:45.270Z,7.75
2024-05-09T06:06:45.332Z,8.15
2024-05-09T06:07:45.403Z,7.56
2024-05-09T06:08:45.510Z,7.46
2024-05-09T06:09:47.611Z,8.45
2024-05-09T06:10:45.514Z,8.48
2024-05-09T06:11:45.603Z,7.29
2024-05-09T06:12:45.447Z,8.16
2024-05-09T06:13:45.506Z,7.39
2024-05-09T06:14:45.419Z,7.97
2024-05-09T06:15:45.431Z,8.81
2024-05-09T06:16:45.465Z,7.67
2024-05-09T06:17:45.743Z,7.63
2024-05-09T06:18:45.563Z,7.70
2024-05-09T06:19:45.587Z,7.43
2024-05-09T06:20:45.486Z,7.99
2024-05-09T06:21:45.453Z,8.19
2024-05-09T06:22:45.441Z,8.69
2024-05-09T06:23:45.494Z,8.26
2024-05-09T06:24:45.449Z,7.45
2024-05-09T06:25:45.471Z,7.69
2024-05-09T06:26:45.440Z,7.70
2024-05-09T06:27:45.530Z,7.79
2024-05-09T06:28:45.499Z,7.20
2024-05-09T06:29:45.448Z,7.50
2024-05-09T06:30:45.493Z,7.41
2024-05-09T06:31:45.530Z,6.58
2024-05-09T06:32:45.567Z,7.20
2024-05-09T06:33:45.585Z,7.65
2024-05-09T06:34:45.628Z,7.20
2024-05-09T06:35:45.542Z,7.65
2024-05-09T06:36:45.463Z,7.06
2024-05-09T06:37:45.486Z,7.51
2024-05-09T06:38:45.539Z,6.73
2024-05-09T06:39:45.471Z,7.76
2024-05-09T06:40:45.786Z,7.61
2024-05-09T06:41:45.463Z,7.50
2024-05-09T06:42:45.474Z,8.14
2024-05-09T06:43:45.540Z,6.82
2024-05-09T06:44:45.525Z,6.92
2024-05-09T06:45:45.486Z,6.45
2024-05-09T06:46:45.714Z,6.51
2024-05-09T06:47:45.568Z,7.23
2024-05-09T06:48:45.849Z,6.49
2024-05-09T06:49:45.547Z,6.61
2024-05-09T06:50:45.622Z,5.99
2024-05-09T06:51:45.484Z,6.68
2024-05-09T06:52:45.554Z,6.63
2024-05-09T06:53:45.613Z,6.12
2024-05-09T06:54:45.624Z,6.07
2024-05-09T06:55:45.729Z,5.95
2024-05-09T06:56:45.682Z,5.93
2024-05-09T06:57:45.688Z,5.06
2024-05-09T06:58:45.780Z,5.47
2024-05-09T06:59:45.774Z,6.63
2024-05-09T07:00:45.911Z,6.03
2024-05-09T07:01:45.938Z,6.78
2024-05-09T07:02:46.068Z,6.84
2024-05-09T07:03:46.085Z,6.87
2024-05-09T07:04:46.100Z,7.26
2024-05-09T07:05:47.084Z,7.01
2024-05-09T07:06:46.107Z,5.97
2024-05-09T07:07:46.264Z,6.39
2024-05-09T07:08:47.409Z,6.92
2024-05-09T07:09:46.304Z,6.69
2024-05-09T07:10:46.586Z,7.50
2024-05-09T07:11:46.518Z,6.14
2024-05-09T07:12:46.462Z,6.21
2024-05-09T07:13:46.527Z,6.36
2024-05-09T07:14:46.606Z,5.41
2024-05-09T07:15:46.542Z,6.14
2024-05-09T07:16:46.702Z,7.07
2024-05-09T07:17:46.821Z,6.09
2024-05-09T07:18:46.920Z,6.43
2024-05-09T07:19:46.856Z,6.85
2024-05-09T07:20:47.394Z,5.96
2024-05-09T07:21:46.886Z,6.29
2024-05-09T07:22:46.925Z,6.72
2024-05-09T07:23:47.551Z,6.69
2024-05-09T07:24:47.064Z,6.15
2024-05-09T07:25:47.332Z,6.07
2024-05-09T07:26:47.217Z,5.50
2024-05-09T07:27:47.236Z,5.62
2024-05-09T07:28:47.327Z,5.21
2024-05-09T07:29:47.406Z,5.36
2024-05-09T07:30:47.354Z,5.73
2024-05-09T07:31:47.409Z,5.56
2024-05-09T07:32:47.853Z,5.82
2024-05-09T07:33:47.522Z,5.91
2024-05-09T07:34:47.502Z,6.46
2024-05-09T07:35:47.590Z,6.49
2024-05-09T07:36:47.548Z,7.36
2024-05-09T07:37:47.621Z,5.57
2024-05-09T07:38:47.732Z,5.94
2024-05-09T07:39:47.688Z,5.71
2024-05-09T07:40:47.838Z,5.39
2024-05-09T07:41:47.810Z,4.85
2024-05-09T07:42:47.832Z,4.74
2024-05-09T07:43:47.891Z,4.88
2024-05-09T07:44:47.937Z,4.95
2024-05-09T07:45:53.093Z,5.48
2024-05-09T07:47:48.786Z,5.49
2024-05-09T07:49:13.626Z,4.62
2024-05-09T07:53:17.300Z,4.35
2024-05-09T07:53:34.820Z,4.22
2024-05-09T07:53:52.210Z,5.14
2024-05-09T07:54:49.276Z,4.71
2024-05-09T07:55:48.059Z,4.52
2024-05-09T07:56:48.079Z,4.27
2024-05-09T07:57:48.027Z,4.34
2024-05-09T07:58:47.975Z,4.73
2024-05-09T07:59:47.976Z,4.05
2024-05-09T08:00:48.176Z,3.94
2024-05-09T08:01:48.059Z,3.64
2024-05-09T08:02:48.048Z,3.60
2024-05-09T08:03:48.195Z,3.12
2024-05-09T08:04:48.164Z,2.95
2024-05-09T08:05:48.032Z,3.30
2024-05-09T08:06:48.068Z,2.67
2024-05-09T08:07:48.012Z,3.40
2024-05-09T08:08:47.987Z,4.47
2024-05-09T08:09:48.025Z,3.58
2024-05-09T08:10:48.066Z,3.67
2024-05-09T08:11:48.024Z,3.35
2024-05-09T08:12:48.037Z,4.11
2024-05-09T08:13:48.044Z,3.57
2024-05-09T08:14:47.995Z,3.25
2024-05-09T08:15:48.055Z,3.37
2024-05-09T08:16:48.044Z,3.29
2024-05-09T08:17:48.115Z,2.86
2024-05-09T08:18:48.094Z,3.94
2024-05-09T08:19:48.083Z,3.54
2024-05-09T08:20:48.012Z,3.56
2024-05-09T08:21:48.053Z,3.33
2024-05-09T08:22:48.037Z,3.79
2024-05-09T08:23:48.018Z,3.72
2024-05-09T08:24:48.059Z,3.47
2024-05-09T08:25:48.120Z,3.13
2024-05-09T08:26:48.146Z,2.93
2024-05-09T08:27:48.176Z,3.62
2024-05-09T08:28:48.186Z,3.61
2024-05-09T08:29:48.267Z,3.25
2024-05-09T08:30:48.563Z,3.25
2024-05-09T08:31:48.390Z,3.50
2024-05-09T08:32:48.541Z,3.71
2024-05-09T08:33:48.756Z,3.93
2024-05-09T08:34:48.425Z,3.31
2024-05-09T08:35:48.425Z,3.53
2024-05-09T08:36:48.502Z,3.81
2024-05-09T08:37:48.578Z,3.14
2024-05-09T08:38:48.545Z,3.47
2024-05-09T08:39:48.683Z,3.60
2024-05-09T08:40:48.776Z,3.49
2024-05-09T08:41:48.664Z,3.45
2024-05-09T08:42:48.792Z,3.30
2024-05-09T08:43:48.763Z,2.90
2024-05-09T08:44:48.846Z,3.01
2024-05-09T08:45:48.868Z,3.08
2024-05-09T08:46:48.880Z,3.19
2024-05-09T08:47:48.924Z,3.26
2024-05-09T08:48:49.063Z,3.11
2024-05-09T08:49:49.042Z,2.17
2024-05-09T08:50:49.164Z,2.58
2024-05-09T08:51:49.146Z,1.78
2024-05-09T08:52:49.192Z,2.15
2024-05-09T08:53:49.263Z,2.30
2024-05-09T08:54:49.338Z,2.08
2024-05-09T08:55:49.323Z,2.33
2024-05-09T08:56:49.376Z,2.53
2024-05-09T08:57:49.465Z,3.06
2024-05-09T08:58:49.571Z,2.48
2024-05-09T08:59:49.519Z,1.98
2024-05-09T09:00:49.996Z,2.80
2024-05-09T09:01:49.684Z,2.85
2024-05-09T09:02:49.754Z,1.97
2024-05-09T09:03:49.870Z,2.59
2024-05-09T09:04:50.136Z,2.54
2024-05-09T09:05:49.823Z,3.08
2024-05-09T09:06:49.896Z,2.93
2024-05-09T09:07:49.955Z,2.76
2024-05-09T09:08:49.948Z,3.15
2024-05-09T09:09:50.027Z,2.13
2024-05-09T09:10:50.092Z,2.24
2024-05-09T09:11:50.140Z,2.64
2024-05-09T09:12:50.197Z,2.02
2024-05-09T09:13:50.167Z,1.85
2024-05-09T09:14:50.174Z,1.92
2024-05-09T09:15:50.351Z,1.95
2024-05-09T09:16:50.273Z,1.98
2024-05-09T09:17:50.450Z,1.54
2024-05-09T09:18:50.588Z,1.28
2024-05-09T09:19:50.442Z,0.80
2024-05-09T09:20:50.497Z,0.90
2024-05-09T09:21:50.623Z,1.03
2024-05-09T09:22:50.567Z,1.48
2024-05-09T09:23:50.586Z,0.87
2024-05-09T09:24:50.653Z,0.94
2024-05-09T09:25:50.803Z,1.09
2024-05-09T09:26:50.721Z,1.10
2024-05-09T09:27:50.827Z,0.77
2024-05-09T09:28:50.855Z,0.95
2024-05-09T09:29:50.903Z,0.74
2024-05-09T09:30:51.080Z,0.90
2024-05-09T09:31:51.350Z,0.64
2024-05-09T09:32:51.073Z,0.59
2024-05-09T09:33:51.306Z,0.87
2024-05-09T09:34:51.127Z,0.76
2024-05-09T09:35:51.104Z,0.96
2024-05-09T09:36:51.226Z,1.00
2024-05-09T09:37:51.192Z,1.02
2024-05-09T09:38:51.263Z,0.95
2024-05-09T09:39:51.341Z,0.72
2024-05-09T09:40:51.485Z,0.97
2024-05-09T09:41:51.410Z,0.72
2024-05-09T09:42:51.564Z,0.57
2024-05-09T09:43:51.554Z,1.11
2024-05-09T09:45:01.824Z,1.28
2024-05-09T09:45:53.528Z,1.50
2024-05-09T09:46:51.635Z,1.52
2024-05-09T09:47:51.718Z,2.01
2024-05-09T09:48:51.788Z,1.43
2024-05-09T09:49:51.723Z,1.08
2024-05-09T09:50:51.740Z,1.37
2024-05-09T09:51:51.774Z,1.31
2024-05-09T09:52:51.734Z,2.10
2024-05-09T09:53:51.769Z,1.78
2024-05-09T09:54:51.938Z,1.76
2024-05-09T09:55:51.865Z,2.35
2024-05-09T09:56:51.946Z,2.06
2024-05-09T09:57:52.075Z,1.76
2024-05-09T09:58:52.008Z,1.44
2024-05-09T09:59:52.056Z,1.51
2024-05-09T10:00:52.212Z,1.67
2024-05-09T10:01:52.229Z,1.37
2024-05-09T10:02:52.249Z,1.55
2024-05-09T10:03:52.458Z,1.14
2024-05-09T10:04:52.412Z,1.14
2024-05-09T10:05:52.385Z,1.20
2024-05-09T10:06:52.368Z,1.59
2024-05-09T10:07:52.389Z,1.31
2024-05-09T10:08:52.446Z,1.32
2024-05-09T10:09:52.469Z,2.70
2024-05-09T10:10:52.778Z,2.13
2024-05-09T10:11:59.575Z,1.54
2024-05-09T10:12:53.603Z,1.39
2024-05-09T10:13:52.535Z,1.15
2024-05-09T10:14:52.564Z,1.14
2024-05-09T10:15:52.931Z,1.24
2024-05-09T10:16:52.560Z,0.97
2024-05-09T10:17:52.673Z,0.96
2024-05-09T10:18:52.825Z,0.77
2024-05-09T10:19:52.723Z,0.98
2024-05-09T10:20:52.558Z,1.11
2024-05-09T10:21:52.631Z,0.78
2024-05-09T10:22:52.540Z,1.06
2024-05-09T10:23:52.581Z,1.07
2024-05-09T10:24:52.627Z,1.08
2024-05-09T10:25:52.575Z,0.90
2024-05-09T10:26:52.554Z,0.98
2024-05-09T10:27:52.566Z,1.09
2024-05-09T10:28:52.591Z,1.14
2024-05-09T10:29:52.580Z,0.95
2024-05-09T10:30:52.639Z,1.11
2024-05-09T10:31:52.658Z,1.13
2024-05-09T10:32:52.753Z,0.91
2024-05-09T10:33:53.320Z,1.55
2024-05-09T10:34:52.758Z,1.10
2024-05-09T10:35:52.753Z,1.09
2024-05-09T10:36:52.884Z,1.32
2024-05-09T10:37:52.951Z,1.25
2024-05-09T10:38:52.979Z,1.00
2024-05-09T10:39:53.106Z,1.02
2024-05-09T10:40:53.076Z,1.11
2024-05-09T10:41:53.118Z,1.25
2024-05-09T10:42:53.186Z,1.44
2024-05-09T10:43:53.238Z,0.94
2024-05-09T10:44:53.264Z,0.94
2024-05-09T10:45:53.486Z,0.99
2024-05-09T10:46:53.425Z,1.03
2024-05-09T10:47:53.552Z,0.82
2024-05-09T10:48:53.666Z,0.85
2024-05-09T10:49:53.742Z,1.03
2024-05-09T10:50:53.632Z,1.19
2024-05-09T10:51:53.746Z,0.77
2024-05-09T10:52:53.744Z,0.62
2024-05-09T10:53:53.791Z,0.76
2024-05-09T10:54:53.850Z,0.74
2024-05-09T10:55:53.868Z,0.77
2024-05-09T10:56:53.901Z,0.81
2024-05-09T10:57:53.986Z,0.65
2024-05-09T10:58:53.942Z,0.76
2024-05-09T10:59:53.970Z,0.57
2024-05-09T11:00:54.163Z,0.81
2024-05-09T11:01:54.230Z,0.65
2024-05-09T11:02:54.188Z,0.98
2024-05-09T11:03:54.411Z,0.95
2024-05-09T11:04:54.283Z,0.76
2024-05-09T11:05:54.338Z,0.93
2024-05-09T11:06:54.376Z,0.91
2024-05-09T11:07:54.354Z,0.77
2024-05-09T11:08:54.388Z,1.26
2024-05-09T11:09:54.452Z,0.96
2024-05-09T11:10:54.546Z,1.02
2024-05-09T11:11:54.554Z,0.88
2024-05-09T11:12:54.533Z,0.59
2024-05-09T11:13:54.528Z,0.65
2024-05-09T11:14:54.546Z,0.56
2024-05-09T11:15:54.782Z,0.59
2024-05-09T11:16:54.604Z,0.66
2024-05-09T11:17:54.787Z,0.61
2024-05-09T11:18:55.110Z,0.91
2024-05-09T11:19:54.812Z,0.47
2024-05-09T11:20:54.787Z,0.67
2024-05-09T11:21:54.853Z,0.55
2024-05-09T11:23:11.903Z,0.91
2024-05-09T11:24:11.971Z,0.43
2024-05-09T11:25:12.013Z,0.85
2024-05-09T11:26:11.888Z,0.94
2024-05-09T11:27:11.947Z,0.83
2024-05-09T11:28:11.997Z,0.79
2024-05-09T11:29:12.244Z,0.69
2024-05-09T11:30:20.828Z,0.41
2024-05-09T11:31:12.951Z,0.37
2024-05-09T11:32:11.998Z,0.73
2024-05-09T11:33:11.982Z,0.69
2024-05-09T11:34:11.969Z,0.47
2024-05-09T11:35:11.915Z,0.47
2024-05-09T11:36:11.915Z,0.63
2024-05-09T11:37:12.041Z,0.47
2024-05-09T11:38:11.943Z,0.62
2024-05-09T11:39:11.953Z,0.81
2024-05-09T11:40:20.733Z,0.82
2024-05-09T11:41:12.950Z,1.03
2024-05-09T11:42:11.971Z,0.99
2024-05-09T11:43:12.132Z,1.13
2024-05-09T11:44:11.937Z,0.73
2024-05-09T11:45:11.956Z,0.84
2024-05-09T11:46:12.119Z,0.48
2024-05-09T11:47:12.006Z,0.81
2024-05-09T11:48:12.046Z,0.96
2024-05-09T11:49:12.195Z,0.68
2024-05-09T11:50:19.139Z,1.07
2024-05-09T11:51:12.974Z,0.44
2024-05-09T11:52:12.034Z,0.63
2024-05-09T11:53:11.979Z,0.56
2024-05-09T11:54:12.006Z,0.85
2024-05-09T11:55:12.014Z,0.72
2024-05-09T11:56:12.023Z,0.85
2024-05-09T11:57:11.980Z,0.79
2024-05-09T11:58:12.060Z,0.80
2024-05-09T11:59:11.993Z,1.22
2024-05-09T12:00:14.934Z,0.84
2024-05-09T12:01:13.075Z,0.74
2024-05-09T12:02:12.143Z,0.90
2024-05-09T12:03:12.038Z,0.85
2024-05-09T12:04:12.258Z,0.91
2024-05-09T12:05:12.122Z,1.14
2024-05-09T12:06:12.053Z,0.82
2024-05-09T12:07:13.130Z,1.24
2024-05-09T12:08:12.014Z,1.03
2024-05-09T12:09:12.004Z,1.04
2024-05-09T12:10:16.794Z,0.92
2024-05-09T12:11:13.142Z,1.22
2024-05-09T12:12:12.014Z,0.89
2024-05-09T12:13:12.057Z,1.01
2024-05-09T12:14:12.050Z,1.11
2024-05-09T12:15:12.036Z,1.18
2024-05-09T12:16:12.077Z,1.27
2024-05-09T12:17:12.085Z,1.33
2024-05-09T12:18:12.085Z,1.19
2024-05-09T12:19:12.104Z,1.28
2024-05-09T12:20:20.943Z,1.25
2024-05-09T12:21:13.037Z,1.04
2024-05-09T12:22:12.136Z,0.94
2024-05-09T12:23:12.099Z,0.93
2024-05-09T12:24:14.438Z,1.04
2024-05-09T12:25:12.094Z,1.01
2024-05-09T12:26:12.057Z,0.90
2024-05-09T12:27:12.104Z,1.31
2024-05-09T12:28:12.135Z,1.21
2024-05-09T12:29:12.066Z,0.96
2024-05-09T12:30:20.741Z,0.73
2024-05-09T12:31:13.090Z,1.28
2024-05-09T12:32:12.088Z,1.03
2024-05-09T12:33:13.082Z,0.66
2024-05-09T12:34:12.280Z,0.73
2024-05-09T12:35:12.060Z,0.70
2024-05-09T12:36:12.074Z,0.77
2024-05-09T12:37:12.150Z,0.53
2024-05-09T12:38:12.080Z,0.57
2024-05-09T12:39:12.088Z,0.59
2024-05-09T12:41:12.096Z,0.67
2024-05-09T12:42:16.620Z,0.84
2024-05-09T12:43:13.144Z,0.87
2024-05-09T12:44:12.125Z,0.72
2024-05-09T12:45:12.099Z,0.60
2024-05-09T12:46:12.166Z,0.44
2024-05-09T12:47:12.107Z,0.66
2024-05-09T12:48:12.957Z,0.38
2024-05-09T12:49:13.760Z,0.74
2024-05-09T12:51:12.129Z,0.74
2024-05-09T12:52:12.129Z,0.61
2024-05-09T12:53:12.105Z,0.47
2024-05-09T12:54:12.129Z,0.72
2024-05-09T12:55:12.170Z,0.63
2024-05-09T12:56:12.145Z,0.38
2024-05-09T12:57:12.260Z,0.66
2024-05-09T12:58:12.362Z,0.58
2024-05-09T12:59:12.147Z,0.32
2024-05-09T13:00:23.195Z,0.91
2024-05-09T13:01:13.210Z,0.65
2024-05-09T13:02:12.398Z,0.69
2024-05-09T13:03:12.360Z,0.65
2024-05-09T13:04:12.271Z,0.47
2024-05-09T13:05:12.193Z,0.60
2024-05-09T13:06:12.171Z,0.79
2024-05-09T13:07:12.220Z,0.79
2024-05-09T13:08:12.186Z,1.03
2024-05-09T13:09:12.188Z,0.49
2024-05-09T13:10:16.282Z,0.76
2024-05-09T13:11:13.182Z,0.79
2024-05-09T13:12:12.159Z,0.47
2024-05-09T13:13:12.510Z,0.63
2024-05-09T13:14:12.247Z,0.54
2024-05-09T13:15:12.174Z,0.41
2024-05-09T13:16:12.277Z,0.60
2024-05-09T13:17:12.223Z,0.82
2024-05-09T13:18:12.207Z,0.46
2024-05-09T13:19:12.200Z,0.54
2024-05-09T13:20:18.964Z,0.45
2024-05-09T13:21:13.195Z,0.54
2024-05-09T13:22:12.232Z,0.46
2024-05-09T13:23:12.176Z,0.62
2024-05-09T13:24:12.192Z,0.51